Time;durP1;ratioP1;P1;durP2;ratioP2;P2;SDS_P1;SDS_P2;PMS_P1;PMS_P2;Temp;Humidity;BMP_temperature;BMP_pressure;BME280_temperature;BME280_humidity;BME280_pressure;Samples;Min_cycle;Max_cycle;Signal;HPM_P1;HPM_P2
2022/01/03 00:16:35;;;;;;;20.1;5.2;;;;;;;10.0;100.0;100900;;;;
2022/01/03 00:20:35;;;;;;;20.1;5.2;;;;;;;10.1;100.0;100900;;;;
2022/01/03 00:22:34;;;;;;;20.1;5.2;;;;;;;10.0;100.0;100890;;;;
2022/01/03 00:24:35;;;;;;;20.1;5.2;;;;;;;9.9;100.0;100900;;;;
2022/01/03 00:28:35;;;;;;;20.1;5.2;;;;;;;10.0;100.0;100900;;;;
2022/01/03 00:36:35;;;;;;;21.7;5.7;;;;;;;9.9;100.0;100900;;;;
2022/01/03 00:42:35;;;;;;;21.7;5.7;;;;;;;10.0;100.0;100910;;;;
2022/01/03 00:46:35;;;;;;;21.7;5.7;;;;;;;9.9;100.0;100910;;;;
2022/01/03 00:54:35;;;;;;;21.7;5.7;;;;;;;10.0;100.0;100920;;;;
2022/01/03 00:56:35;;;;;;;17.7;5.6;;;;;;;9.9;100.0;100910;;;;
2022/01/03 01:06:35;;;;;;;17.7;5.6;;;;;;;9.8;100.0;100920;;;;
2022/01/03 01:08:35;;;;;;;17.7;5.6;;;;;;;9.9;100.0;100920;;;;
2022/01/03 01:14:35;;;;;;;17.7;5.6;;;;;;;10.0;100.0;100910;;;;
2022/01/03 01:18:36;;;;;;;15.7;4.8;;;;;;;10.1;100.0;100920;;;;
2022/01/03 01:20:35;;;;;;;15.7;4.8;;;;;;;10.0;100.0;100930;;;;
2022/01/03 01:28:34;;;;;;;15.7;4.8;;;;;;;10.1;100.0;100920;;;;
2022/01/03 01:30:35;;;;;;;15.7;4.8;;;;;;;9.9;100.0;100930;;;;
2022/01/03 01:36:34;;;;;;;14.1;4.9;;;;;;;10.0;100.0;100920;;;;
2022/01/03 01:38:34;;;;;;;14.1;4.9;;;;;;;9.9;100.0;100930;;;;
2022/01/03 01:42:34;;;;;;;14.1;4.9;;;;;;;10.0;100.0;100930;;;;
2022/01/03 01:50:35;;;;;;;14.1;4.9;;;;;;;9.9;100.0;100930;;;;
2022/01/03 01:52:34;;;;;;;14.1;4.9;;;;;;;10.0;100.0;100930;;;;
2022/01/03 01:56:34;;;;;;;16.0;5.3;;;;;;;9.9;100.0;100930;;;;
2022/01/03 01:58:34;;;;;;;16.0;5.3;;;;;;;10.0;100.0;100930;;;;
2022/01/03 02:00:35;;;;;;;16.0;5.3;;;;;;;9.9;100.0;100950;;;;
2022/01/03 02:08:35;;;;;;;16.0;5.3;;;;;;;9.8;100.0;100940;;;;
2022/01/03 02:10:35;;;;;;;16.0;5.3;;;;;;;9.9;100.0;100950;;;;
2022/01/03 02:12:35;;;;;;;16.0;5.3;;;;;;;9.7;100.0;100950;;;;
2022/01/03 02:14:37;;;;;;;16.0;5.3;;;;;;;9.8;100.0;100940;;;;
2022/01/03 02:16:35;;;;;;;19.9;5.7;;;;;;;9.7;100.0;100940;;;;
2022/01/03 02:30:35;;;;;;;19.9;5.7;;;;;;;9.6;100.0;100950;;;;
2022/01/03 02:32:35;;;;;;;19.9;5.7;;;;;;;9.7;100.0;100950;;;;
2022/01/03 02:34:35;;;;;;;19.9;5.7;;;;;;;9.6;100.0;100950;;;;
2022/01/03 02:36:36;;;;;;;17.7;5.9;;;;;;;9.7;100.0;100960;;;;
2022/01/03 02:42:35;;;;;;;17.7;5.9;;;;;;;9.6;100.0;100950;;;;
2022/01/03 02:44:35;;;;;;;17.7;5.9;;;;;;;9.7;100.0;100950;;;;
2022/01/03 02:46:35;;;;;;;17.7;5.9;;;;;;;9.6;100.0;100940;;;;
2022/01/03 02:48:35;;;;;;;17.7;5.9;;;;;;;9.7;100.0;100940;;;;
2022/01/03 02:52:35;;;;;;;17.7;5.9;;;;;;;9.6;100.0;100940;;;;
2022/01/03 02:54:35;;;;;;;17.7;5.9;;;;;;;9.7;100.0;100950;;;;
2022/01/03 02:56:35;;;;;;;19.1;5.5;;;;;;;9.6;100.0;100950;;;;
2022/01/03 02:58:35;;;;;;;19.1;5.5;;;;;;;9.7;100.0;100940;;;;
2022/01/03 03:02:35;;;;;;;19.1;5.5;;;;;;;9.6;100.0;100950;;;;
2022/01/03 03:06:34;;;;;;;19.1;5.5;;;;;;;9.7;100.0;100940;;;;
2022/01/03 03:12:35;;;;;;;19.1;5.5;;;;;;;9.6;100.0;100950;;;;
2022/01/03 03:20:35;;;;;;;21.5;6.3;;;;;;;9.7;100.0;100960;;;;
2022/01/03 03:30:35;;;;;;;21.5;6.3;;;;;;;9.6;100.0;100960;;;;
2022/01/03 03:38:35;;;;;;;21.2;7.2;;;;;;;9.5;100.0;100950;;;;
2022/01/03 03:46:35;;;;;;;21.2;7.2;;;;;;;9.6;100.0;100960;;;;
2022/01/03 03:52:35;;;;;;;21.2;7.2;;;;;;;9.7;100.0;100950;;;;
2022/01/03 03:56:35;;;;;;;23.3;6.9;;;;;;;9.6;100.0;100950;;;;
2022/01/03 04:04:35;;;;;;;23.3;6.9;;;;;;;9.7;100.0;100950;;;;
2022/01/03 04:08:35;;;;;;;23.3;6.9;;;;;;;9.8;100.0;100950;;;;
2022/01/03 04:18:35;;;;;;;21.8;6.9;;;;;;;9.7;100.0;100940;;;;
2022/01/03 04:22:35;;;;;;;21.8;6.9;;;;;;;9.6;100.0;100940;;;;
2022/01/03 04:24:35;;;;;;;21.8;6.9;;;;;;;9.8;100.0;100930;;;;
2022/01/03 04:26:35;;;;;;;21.8;6.9;;;;;;;9.7;100.0;100930;;;;
2022/01/03 04:32:35;;;;;;;21.8;6.9;;;;;;;9.9;100.0;100920;;;;
2022/01/03 04:34:35;;;;;;;21.8;6.9;;;;;;;9.8;100.0;100930;;;;
2022/01/03 04:40:35;;;;;;;23.0;6.9;;;;;;;9.7;100.0;100930;;;;
2022/01/03 04:42:35;;;;;;;23.0;6.9;;;;;;;9.8;100.0;100920;;;;
2022/01/03 04:44:35;;;;;;;23.0;6.9;;;;;;;9.7;100.0;100930;;;;
2022/01/03 04:52:35;;;;;;;23.0;6.9;;;;;;;9.8;100.0;100920;;;;
2022/01/03 04:54:35;;;;;;;23.0;6.9;;;;;;;9.7;100.0;100920;;;;
2022/01/03 05:02:37;;;;;;;19.3;6.1;;;;;;;9.8;100.0;100910;;;;
2022/01/03 05:08:35;;;;;;;19.3;6.1;;;;;;;9.7;100.0;100920;;;;
2022/01/03 05:12:35;;;;;;;19.3;6.1;;;;;;;9.6;100.0;100920;;;;
2022/01/03 05:20:35;;;;;;;20.8;6.5;;;;;;;9.7;100.0;100910;;;;
2022/01/03 05:24:36;;;;;;;20.8;6.5;;;;;;;9.6;100.0;100900;;;;
2022/01/03 05:28:35;;;;;;;20.8;6.5;;;;;;;9.5;100.0;100900;;;;
2022/01/03 05:30:35;;;;;;;20.8;6.5;;;;;;;9.6;100.0;100900;;;;
2022/01/03 05:42:35;;;;;;;21.4;6.3;;;;;;;9.7;100.0;100890;;;;
2022/01/03 05:46:35;;;;;;;21.4;6.3;;;;;;;9.7;100.0;100890;;;;
2022/01/03 05:50:35;;;;;;;21.4;6.3;;;;;;;9.8;100.0;100880;;;;
2022/01/03 05:54:35;;;;;;;21.4;6.3;;;;;;;9.7;100.0;100890;;;;
2022/01/03 05:56:35;;;;;;;24.3;6.3;;;;;;;9.8;100.0;100880;;;;
2022/01/03 05:58:35;;;;;;;24.3;6.3;;;;;;;9.7;100.0;100880;;;;
2022/01/03 06:02:39;;;;;;;24.3;6.3;;;;;;;9.6;100.0;100880;;;;
2022/01/03 06:10:35;;;;;;;24.3;6.3;;;;;;;9.7;100.0;100880;;;;
2022/01/03 06:12:35;;;;;;;24.3;6.3;;;;;;;9.6;100.0;100880;;;;
2022/01/03 06:14:37;;;;;;;24.3;6.3;;;;;;;9.7;100.0;100880;;;;
2022/01/03 06:16:35;;;;;;;20.9;6.2;;;;;;;9.8;100.0;100880;;;;
2022/01/03 06:20:35;;;;;;;20.9;6.2;;;;;;;9.7;100.0;100870;;;;
2022/01/03 06:22:35;;;;;;;20.9;6.2;;;;;;;9.8;100.0;100870;;;;
2022/01/03 06:26:35;;;;;;;20.9;6.2;;;;;;;9.7;100.0;100870;;;;
2022/01/03 06:30:35;;;;;;;20.9;6.2;;;;;;;9.8;100.0;100870;;;;
2022/01/03 06:34:35;;;;;;;20.9;6.2;;;;;;;9.7;100.0;100870;;;;
2022/01/03 06:44:35;;;;;;;17.5;5.4;;;;;;;9.6;100.0;100860;;;;
2022/01/03 06:46:35;;;;;;;17.5;5.4;;;;;;;9.7;100.0;100860;;;;
2022/01/03 06:50:36;;;;;;;17.5;5.4;;;;;;;9.6;100.0;100860;;;;
2022/01/03 06:52:35;;;;;;;17.5;5.4;;;;;;;9.5;100.0;100850;;;;
2022/01/03 06:56:35;;;;;;;16.3;5.1;;;;;;;9.6;100.0;100860;;;;
2022/01/03 06:58:35;;;;;;;16.3;5.1;;;;;;;9.5;100.0;100860;;;;
2022/01/03 07:00:35;;;;;;;16.3;5.1;;;;;;;9.6;100.0;100860;;;;
2022/01/03 07:02:35;;;;;;;16.3;5.1;;;;;;;9.5;100.0;100860;;;;
2022/01/03 07:20:35;;;;;;;19.0;5.2;;;;;;;9.5;100.0;100850;;;;
2022/01/03 07:22:39;;;;;;;19.0;5.2;;;;;;;9.6;100.0;100850;;;;
2022/01/03 07:24:35;;;;;;;19.0;5.2;;;;;;;9.5;100.0;100850;;;;
2022/01/03 07:26:35;;;;;;;19.0;5.2;;;;;;;9.6;100.0;100850;;;;
2022/01/03 07:28:35;;;;;;;19.0;5.2;;;;;;;9.5;100.0;100860;;;;
2022/01/03 07:36:35;;;;;;;16.5;5.2;;;;;;;9.4;100.0;100860;;;;
2022/01/03 07:40:35;;;;;;;16.5;5.2;;;;;;;9.5;100.0;100850;;;;
2022/01/03 07:44:35;;;;;;;16.5;5.2;;;;;;;9.4;100.0;100850;;;;
2022/01/03 07:50:35;;;;;;;16.5;5.2;;;;;;;9.5;100.0;100850;;;;
2022/01/03 07:52:35;;;;;;;16.5;5.2;;;;;;;9.4;100.0;100860;;;;
2022/01/03 07:58:35;;;;;;;15.8;5.0;;;;;;;9.3;100.0;100870;;;;
2022/01/03 08:02:35;;;;;;;15.8;5.0;;;;;;;9.2;100.0;100870;;;;
2022/01/03 08:16:35;;;;;;;15.6;4.7;;;;;;;9.3;100.0;100870;;;;
2022/01/03 08:20:35;;;;;;;15.6;4.7;;;;;;;9.4;100.0;100880;;;;
2022/01/03 08:22:35;;;;;;;15.6;4.7;;;;;;;9.3;100.0;100870;;;;
2022/01/03 08:24:35;;;;;;;15.6;4.7;;;;;;;9.4;100.0;100870;;;;
2022/01/03 08:32:35;;;;;;;15.6;4.7;;;;;;;9.5;100.0;100870;;;;
2022/01/03 08:38:35;;;;;;;13.6;4.5;;;;;;;9.6;100.0;100870;;;;
2022/01/03 08:42:35;;;;;;;13.6;4.5;;;;;;;9.5;100.0;100870;;;;
2022/01/03 08:44:35;;;;;;;13.6;4.5;;;;;;;9.6;100.0;100860;;;;
2022/01/03 08:46:35;;;;;;;13.6;4.5;;;;;;;9.5;100.0;100870;;;;
2022/01/03 08:48:35;;;;;;;13.6;4.5;;;;;;;9.6;100.0;100870;;;;
2022/01/03 08:52:35;;;;;;;13.6;4.5;;;;;;;9.7;100.0;100870;;;;
2022/01/03 08:54:35;;;;;;;15.5;5.2;;;;;;;9.6;100.0;100880;;;;
2022/01/03 09:02:36;;;;;;;15.5;5.2;;;;;;;9.7;100.0;100890;;;;
2022/01/03 09:08:35;;;;;;;15.5;5.2;;;;;;;9.9;100.0;100890;;;;
2022/01/03 09:10:35;;;;;;;15.5;5.2;;;;;;;9.8;100.0;100890;;;;
2022/01/03 09:14:35;;;;;;;18.6;5.2;;;;;;;9.9;100.0;100880;;;;
2022/01/03 09:20:35;;;;;;;18.6;5.2;;;;;;;9.8;100.0;100870;;;;
2022/01/03 09:22:40;;;;;;;18.6;5.2;;;;;;;9.9;100.0;100870;;;;
2022/01/03 09:38:36;;;;;;;16.6;5.0;;;;;;;10.0;100.0;100850;;;;
2022/01/03 09:42:35;;;;;;;16.6;5.0;;;;;;;10.1;100.0;100840;;;;
2022/01/03 09:46:35;;;;;;;16.6;5.0;;;;;;;10.0;100.0;100840;;;;
2022/01/03 09:48:35;;;;;;;16.6;5.0;;;;;;;10.2;100.0;100840;;;;
2022/01/03 09:52:35;;;;;;;16.6;5.0;;;;;;;10.0;100.0;100830;;;;
2022/01/03 09:58:35;;;;;;;17.3;5.2;;;;;;;10.1;100.0;100840;;;;
2022/01/03 10:02:35;;;;;;;17.3;5.2;;;;;;;10.2;100.0;100840;;;;
2022/01/03 10:04:35;;;;;;;17.3;5.2;;;;;;;10.3;100.0;100830;;;;
2022/01/03 10:06:35;;;;;;;17.3;5.2;;;;;;;10.4;100.0;100830;;;;
2022/01/03 10:08:35;;;;;;;17.3;5.2;;;;;;;10.3;100.0;100840;;;;
2022/01/03 10:10:35;;;;;;;17.3;5.2;;;;;;;10.4;100.0;100830;;;;
2022/01/03 10:14:35;;;;;;;17.9;5.2;;;;;;;10.5;100.0;100830;;;;
2022/01/03 10:16:44;;;;;;;17.9;5.2;;;;;;;10.6;100.0;100820;;;;
2022/01/03 10:24:36;;;;;;;17.9;5.2;;;;;;;10.4;100.0;100830;;;;
2022/01/03 10:28:37;;;;;;;17.9;5.2;;;;;;;10.6;100.0;100820;;;;
2022/01/03 10:30:35;;;;;;;17.9;5.2;;;;;;;10.4;100.0;100830;;;;
2022/01/03 10:38:36;;;;;;;17.4;5.5;;;;;;;10.5;100.0;100830;;;;
2022/01/03 10:44:37;;;;;;;17.4;5.5;;;;;;;10.6;100.0;100820;;;;
2022/01/03 10:50:37;;;;;;;17.4;5.5;;;;;;;10.5;100.0;100810;;;;
2022/01/03 11:02:37;;;;;;;15.8;5.3;;;;;;;10.6;100.0;100800;;;;
2022/01/03 11:04:42;;;;;;;15.8;5.3;;;;;;;10.5;100.0;100810;;;;
2022/01/03 11:14:38;;;;;;;16.6;5.6;;;;;;;10.6;100.0;100790;;;;
2022/01/03 11:22:35;;;;;;;16.6;5.6;;;;;;;10.5;100.0;100780;;;;
2022/01/03 11:26:35;;;;;;;16.6;5.6;;;;;;;10.4;100.0;100770;;;;
2022/01/03 11:32:37;;;;;;;16.6;5.6;;;;;;;10.5;100.0;100770;;;;
2022/01/03 11:34:35;;;;;;;15.0;5.4;;;;;;;10.4;100.0;100770;;;;
2022/01/03 11:38:35;;;;;;;15.0;5.4;;;;;;;10.5;100.0;100760;;;;
2022/01/03 11:42:35;;;;;;;15.0;5.4;;;;;;;10.6;100.0;100760;;;;
2022/01/03 11:48:35;;;;;;;15.0;5.4;;;;;;;10.5;100.0;100750;;;;
2022/01/03 11:58:40;;;;;;;17.7;6.4;;;;;;;10.6;100.0;100740;;;;
2022/01/03 12:12:35;;;;;;;17.7;6.4;;;;;;;10.5;100.0;100720;;;;
2022/01/03 12:14:35;;;;;;;14.6;4.5;;;;;;;10.6;100.0;100710;;;;
2022/01/03 12:16:35;;;;;;;14.6;4.5;;;;;;;10.4;100.0;100710;;;;
2022/01/03 12:26:35;;;;;;;14.6;4.5;;;;;;;10.5;100.0;100700;;;;
2022/01/03 12:30:35;;;;;;;14.6;4.5;;;;;;;10.4;100.0;100690;;;;
2022/01/03 12:32:35;;;;;;;14.6;4.5;;;;;;;10.5;100.0;100690;;;;
2022/01/03 12:34:38;;;;;;;10.6;4.2;;;;;;;10.6;100.0;100680;;;;
2022/01/03 12:38:35;;;;;;;10.6;4.2;;;;;;;10.5;100.0;100680;;;;
2022/01/03 12:42:35;;;;;;;10.6;4.2;;;;;;;10.6;100.0;100680;;;;
2022/01/03 12:44:35;;;;;;;10.6;4.2;;;;;;;10.5;100.0;100670;;;;
2022/01/03 12:46:35;;;;;;;10.6;4.2;;;;;;;10.4;100.0;100670;;;;
2022/01/03 12:50:35;;;;;;;10.6;4.2;;;;;;;10.5;100.0;100670;;;;
2022/01/03 12:54:35;;;;;;;14.0;5.0;;;;;;;10.6;100.0;100650;;;;
2022/01/03 12:58:35;;;;;;;14.0;5.0;;;;;;;10.5;100.0;100650;;;;
2022/01/03 13:00:35;;;;;;;14.0;5.0;;;;;;;10.4;100.0;100650;;;;
2022/01/03 13:02:35;;;;;;;14.0;5.0;;;;;;;10.5;100.0;100650;;;;
2022/01/03 13:04:35;;;;;;;14.0;5.0;;;;;;;10.6;100.0;100650;;;;
2022/01/03 13:08:35;;;;;;;14.0;5.0;;;;;;;10.7;100.0;100640;;;;
2022/01/03 13:10:35;;;;;;;14.0;5.0;;;;;;;10.5;100.0;100640;;;;
2022/01/03 13:14:35;;;;;;;11.5;3.9;;;;;;;10.6;100.0;100630;;;;
2022/01/03 13:16:35;;;;;;;11.5;3.9;;;;;;;10.5;100.0;100630;;;;
2022/01/03 13:18:35;;;;;;;11.5;3.9;;;;;;;10.6;100.0;100630;;;;
2022/01/03 13:22:35;;;;;;;11.5;3.9;;;;;;;10.7;100.0;100620;;;;
2022/01/03 13:24:35;;;;;;;11.5;3.9;;;;;;;10.6;100.0;100610;;;;
2022/01/03 13:30:35;;;;;;;11.5;3.9;;;;;;;10.5;100.0;100610;;;;
2022/01/03 13:32:35;;;;;;;11.5;3.9;;;;;;;10.6;100.0;100610;;;;
2022/01/03 13:38:35;;;;;;;11.0;4.2;;;;;;;10.7;100.0;100610;;;;
2022/01/03 13:40:35;;;;;;;11.0;4.2;;;;;;;10.5;100.0;100600;;;;
2022/01/03 13:42:45;;;;;;;11.0;4.2;;;;;;;10.4;100.0;100600;;;;
2022/01/03 13:44:43;;;;;;;11.0;4.2;;;;;;;10.5;100.0;100600;;;;
2022/01/03 13:50:35;;;;;;;11.0;4.2;;;;;;;10.5;100.0;100600;;;;
2022/01/03 13:58:35;;;;;;;8.4;3.4;;;;;;;10.4;100.0;100580;;;;
2022/01/03 14:00:36;;;;;;;8.4;3.4;;;;;;;10.3;100.0;100560;;;;
2022/01/03 14:02:35;;;;;;;8.4;3.4;;;;;;;10.4;100.0;100580;;;;
2022/01/03 14:04:35;;;;;;;8.4;3.4;;;;;;;10.5;100.0;100570;;;;
2022/01/03 14:06:35;;;;;;;8.4;3.4;;;;;;;10.4;100.0;100580;;;;
2022/01/03 14:08:35;;;;;;;8.4;3.4;;;;;;;10.3;100.0;100580;;;;
2022/01/03 14:10:35;;;;;;;8.4;3.4;;;;;;;10.4;100.0;100570;;;;
2022/01/03 14:12:35;;;;;;;8.4;3.4;;;;;;;10.3;100.0;100560;;;;
2022/01/03 14:14:35;;;;;;;8.1;3.6;;;;;;;10.4;100.0;100560;;;;
2022/01/03 14:16:35;;;;;;;8.1;3.6;;;;;;;10.3;100.0;100560;;;;
2022/01/03 14:18:35;;;;;;;8.1;3.6;;;;;;;10.4;100.0;100560;;;;
2022/01/03 14:20:35;;;;;;;8.1;3.6;;;;;;;10.3;100.0;100560;;;;
2022/01/03 14:22:35;;;;;;;8.1;3.6;;;;;;;10.2;100.0;100560;;;;
2022/01/03 14:24:35;;;;;;;8.1;3.6;;;;;;;10.3;100.0;100550;;;;
2022/01/03 14:26:35;;;;;;;8.1;3.6;;;;;;;10.2;100.0;100560;;;;
2022/01/03 14:28:35;;;;;;;8.1;3.6;;;;;;;10.3;100.0;100550;;;;
2022/01/03 14:30:35;;;;;;;8.1;3.6;;;;;;;10.4;100.0;100560;;;;
2022/01/03 14:32:35;;;;;;;8.1;3.6;;;;;;;10.3;100.0;100560;;;;
2022/01/03 14:34:36;;;;;;;8.0;3.1;;;;;;;10.4;100.0;100550;;;;
2022/01/03 14:36:35;;;;;;;8.0;3.1;;;;;;;10.3;100.0;100550;;;;
2022/01/03 14:46:35;;;;;;;8.0;3.1;;;;;;;10.1;100.0;100540;;;;
2022/01/03 14:50:36;;;;;;;8.0;3.1;;;;;;;10.0;100.0;100530;;;;
2022/01/03 14:54:36;;;;;;;6.1;2.6;;;;;;;10.1;100.0;100530;;;;
2022/01/03 15:00:35;;;;;;;6.1;2.6;;;;;;;10.0;100.0;100530;;;;
2022/01/03 15:04:45;;;;;;;6.1;2.6;;;;;;;10.1;100.0;100530;;;;
2022/01/03 15:06:35;;;;;;;6.1;2.6;;;;;;;10.0;100.0;100530;;;;
2022/01/03 15:12:35;;;;;;;6.1;2.6;;;;;;;9.9;100.0;100520;;;;
2022/01/03 15:14:35;;;;;;;8.6;5.0;;;;;;;10.0;100.0;100520;;;;
2022/01/03 15:18:35;;;;;;;8.6;5.0;;;;;;;10.1;100.0;100510;;;;
2022/01/03 15:22:35;;;;;;;8.6;5.0;;;;;;;9.9;100.0;100520;;;;
2022/01/03 15:28:35;;;;;;;8.6;5.0;;;;;;;9.8;100.0;100520;;;;
2022/01/03 15:30:45;;;;;;;8.6;5.0;;;;;;;9.9;100.0;100510;;;;
2022/01/03 15:34:36;;;;;;;11.2;5.1;;;;;;;9.8;100.0;100510;;;;
2022/01/03 15:38:35;;;;;;;11.2;5.1;;;;;;;9.7;100.0;100510;;;;
2022/01/03 15:50:35;;;;;;;11.2;5.1;;;;;;;9.6;100.0;100510;;;;
2022/01/03 15:56:35;;;;;;;6.2;3.9;;;;;;;9.7;100.0;100500;;;;
2022/01/03 16:00:36;;;;;;;6.2;3.9;;;;;;;9.6;100.0;100500;;;;
2022/01/03 16:08:35;;;;;;;6.2;3.9;;;;;;;9.7;100.0;100490;;;;
2022/01/03 16:18:35;;;;;;;6.8;3.9;;;;;;;9.8;100.0;100480;;;;
2022/01/03 16:24:35;;;;;;;6.8;3.9;;;;;;;9.7;100.0;100490;;;;
2022/01/03 16:32:35;;;;;;;6.8;3.9;;;;;;;9.6;100.0;100480;;;;
2022/01/03 16:34:36;;;;;;;6.8;3.6;;;;;;;9.7;100.0;100480;;;;
2022/01/03 16:36:35;;;;;;;6.8;3.6;;;;;;;9.8;100.0;100470;;;;
2022/01/03 16:50:36;;;;;;;6.8;3.6;;;;;;;9.7;100.0;100450;;;;
2022/01/03 16:52:35;;;;;;;6.8;3.6;;;;;;;9.8;100.0;100450;;;;
2022/01/03 16:58:35;;;;;;;5.2;4.0;;;;;;;9.7;100.0;100450;;;;
2022/01/03 17:02:39;;;;;;;5.2;4.0;;;;;;;9.8;100.0;100460;;;;
2022/01/03 17:06:35;;;;;;;5.2;4.0;;;;;;;9.7;100.0;100440;;;;
2022/01/03 17:08:35;;;;;;;5.2;4.0;;;;;;;9.6;100.0;100440;;;;
2022/01/03 17:18:35;;;;;;;5.4;4.3;;;;;;;9.5;100.0;100430;;;;
2022/01/03 17:22:35;;;;;;;5.4;4.3;;;;;;;9.6;100.0;100420;;;;
2022/01/03 17:24:35;;;;;;;5.4;4.3;;;;;;;9.5;100.0;100420;;;;
2022/01/03 17:26:45;;;;;;;5.4;4.3;;;;;;;9.6;100.0;100410;;;;
2022/01/03 17:30:35;;;;;;;5.4;4.3;;;;;;;9.5;100.0;100400;;;;
2022/01/03 17:32:35;;;;;;;5.4;4.3;;;;;;;9.6;100.0;100400;;;;
2022/01/03 17:34:36;;;;;;;5.1;4.6;;;;;;;9.5;100.0;100400;;;;
2022/01/03 17:38:36;;;;;;;5.1;4.6;;;;;;;9.6;100.0;100400;;;;
2022/01/03 17:40:36;;;;;;;5.1;4.6;;;;;;;9.5;100.0;100400;;;;
2022/01/03 17:42:39;;;;;;;5.1;4.6;;;;;;;9.6;100.0;100390;;;;
2022/01/03 17:46:35;;;;;;;5.1;4.6;;;;;;;9.5;100.0;100380;;;;
2022/01/03 17:58:36;;;;;;;8.9;7.0;;;;;;;9.4;100.0;100380;;;;
2022/01/03 18:00:35;;;;;;;8.9;7.0;;;;;;;9.5;100.0;100370;;;;
2022/01/03 18:14:36;;;;;;;9.1;8.2;;;;;;;9.4;100.0;100370;;;;
2022/01/03 18:16:35;;;;;;;9.1;8.2;;;;;;;9.5;100.0;100360;;;;
2022/01/03 18:18:35;;;;;;;9.1;8.2;;;;;;;9.4;100.0;100360;;;;
2022/01/03 18:30:35;;;;;;;9.1;8.2;;;;;;;9.5;100.0;100340;;;;
2022/01/03 18:36:35;;;;;;;8.5;7.7;;;;;;;9.4;100.0;100340;;;;
2022/01/03 18:40:35;;;;;;;8.5;7.7;;;;;;;9.5;100.0;100330;;;;
2022/01/03 18:42:39;;;;;;;8.5;7.7;;;;;;;9.4;100.0;100320;;;;
2022/01/03 18:48:37;;;;;;;8.5;7.7;;;;;;;9.5;100.0;100310;;;;
2022/01/03 18:50:35;;;;;;;8.5;7.7;;;;;;;9.4;100.0;100310;;;;
2022/01/03 18:54:36;;;;;;;6.0;5.4;;;;;;;9.5;100.0;100310;;;;
2022/01/03 18:56:35;;;;;;;6.0;5.4;;;;;;;9.6;100.0;100310;;;;
2022/01/03 19:00:35;;;;;;;6.0;5.4;;;;;;;9.5;100.0;100300;;;;
2022/01/03 19:06:35;;;;;;;6.0;5.4;;;;;;;9.4;100.0;100300;;;;
2022/01/03 19:14:35;;;;;;;6.7;5.3;;;;;;;9.5;100.0;100280;;;;
2022/01/03 19:20:36;;;;;;;6.7;5.3;;;;;;;9.4;100.0;100280;;;;
2022/01/03 19:26:35;;;;;;;6.7;5.3;;;;;;;9.5;100.0;100270;;;;
2022/01/03 19:30:35;;;;;;;6.7;5.3;;;;;;;9.4;100.0;100290;;;;
2022/01/03 19:42:35;;;;;;;10.7;8.0;;;;;;;9.3;100.0;100260;;;;
2022/01/03 19:44:36;;;;;;;10.7;8.0;;;;;;;9.4;100.0;100260;;;;
2022/01/03 19:48:35;;;;;;;10.7;8.0;;;;;;;9.3;100.0;100270;;;;
2022/01/03 19:56:35;;;;;;;6.3;5.2;;;;;;;9.2;100.0;100250;;;;
2022/01/03 20:12:35;;;;;;;7.9;5.4;;;;;;;9.3;100.0;100240;;;;
2022/01/03 20:16:35;;;;;;;7.9;5.4;;;;;;;9.4;100.0;100230;;;;
2022/01/03 20:18:35;;;;;;;7.9;5.4;;;;;;;9.3;100.0;100230;;;;
2022/01/03 20:20:37;;;;;;;7.9;5.4;;;;;;;9.4;100.0;100220;;;;
2022/01/03 20:22:35;;;;;;;7.9;5.4;;;;;;;9.3;100.0;100220;;;;
2022/01/03 20:24:36;;;;;;;7.9;5.4;;;;;;;9.4;100.0;100210;;;;
2022/01/03 20:38:37;;;;;;;7.7;5.0;;;;;;;9.3;100.0;100190;;;;
2022/01/03 20:40:35;;;;;;;7.7;5.0;;;;;;;9.4;100.0;100190;;;;
2022/01/03 20:46:35;;;;;;;7.7;5.0;;;;;;;9.5;100.0;100180;;;;
2022/01/03 20:50:35;;;;;;;7.7;5.0;;;;;;;9.4;100.0;100180;;;;
2022/01/03 20:52:35;;;;;;;7.7;5.7;;;;;;;9.5;100.0;100180;;;;
2022/01/03 20:56:35;;;;;;;7.7;5.7;;;;;;;9.4;100.0;100180;;;;
2022/01/03 21:00:35;;;;;;;7.7;5.7;;;;;;;9.5;100.0;100170;;;;
2022/01/03 21:04:35;;;;;;;7.7;5.7;;;;;;;9.4;100.0;100170;;;;
2022/01/03 21:20:35;;;;;;;10.7;6.9;;;;;;;9.3;100.0;100160;;;;
2022/01/03 21:36:35;;;;;;;10.9;7.4;;;;;;;9.4;100.0;100140;;;;
2022/01/03 21:38:35;;;;;;;10.9;7.4;;;;;;;9.3;100.0;100130;;;;
2022/01/03 21:40:35;;;;;;;10.9;7.4;;;;;;;9.4;100.0;100130;;;;
2022/01/03 21:46:35;;;;;;;10.9;7.4;;;;;;;9.3;100.0;100130;;;;
2022/01/03 21:48:35;;;;;;;10.9;7.4;;;;;;;9.4;100.0;100140;;;;
2022/01/03 21:54:35;;;;;;;8.0;7.0;;;;;;;9.5;100.0;100130;;;;
2022/01/03 21:58:35;;;;;;;8.0;7.0;;;;;;;9.4;100.0;100120;;;;
2022/01/03 22:00:35;;;;;;;8.0;7.0;;;;;;;9.5;100.0;100120;;;;
2022/01/03 22:02:35;;;;;;;8.0;7.0;;;;;;;9.4;100.0;100120;;;;
2022/01/03 22:12:35;;;;;;;8.4;7.5;;;;;;;9.5;100.0;100100;;;;
2022/01/03 22:14:35;;;;;;;8.4;7.5;;;;;;;9.4;100.0;100100;;;;
2022/01/03 22:22:35;;;;;;;8.4;7.5;;;;;;;9.5;100.0;100080;;;;
2022/01/03 22:24:35;;;;;;;8.4;7.5;;;;;;;9.4;100.0;100080;;;;
2022/01/03 22:32:35;;;;;;;9.6;8.3;;;;;;;9.5;100.0;100080;;;;
2022/01/03 22:36:35;;;;;;;9.6;8.3;;;;;;;9.4;100.0;100080;;;;
2022/01/03 22:44:35;;;;;;;9.6;8.3;;;;;;;9.3;100.0;100060;;;;
2022/01/03 22:48:35;;;;;;;9.6;8.3;;;;;;;9.4;100.0;100060;;;;
2022/01/03 22:52:35;;;;;;;8.2;7.4;;;;;;;9.3;100.0;100060;;;;
2022/01/03 23:02:35;;;;;;;8.2;7.4;;;;;;;9.2;100.0;100050;;;;
2022/01/03 23:16:35;;;;;;;8.6;6.2;;;;;;;9.1;100.0;100040;;;;
2022/01/03 23:18:35;;;;;;;8.6;6.2;;;;;;;9.3;100.0;100040;;;;
2022/01/03 23:20:35;;;;;;;8.6;6.2;;;;;;;9.2;100.0;100030;;;;
2022/01/03 23:22:35;;;;;;;8.6;6.2;;;;;;;9.1;100.0;100030;;;;
2022/01/03 23:24:35;;;;;;;8.6;6.2;;;;;;;9.2;100.0;100020;;;;
2022/01/03 23:30:35;;;;;;;8.6;6.2;;;;;;;9.1;100.0;100020;;;;
2022/01/03 23:34:35;;;;;;;6.6;6.0;;;;;;;9.2;100.0;100010;;;;
2022/01/03 23:36:35;;;;;;;6.6;6.0;;;;;;;9.1;100.0;100000;;;;
2022/01/03 23:50:35;;;;;;;6.6;6.0;;;;;;;9.2;100.0;99980;;;;
2022/01/03 23:52:35;;;;;;;6.4;5.7;;;;;;;9.1;100.0;99970;;;;
